createdAt,value
2022-12-31T00:00:46.092Z,67.6
2022-12-31T00:06:21.371Z,67.6
2022-12-31T00:11:58.193Z,67.7
2022-12-31T00:17:35.405Z,68
2022-12-31T00:23:10.341Z,68.1
2022-12-31T00:28:45.424Z,68.1
2022-12-31T00:34:23.766Z,68.2
2022-12-31T00:40:10.412Z,68.8
2022-12-31T00:45:46.044Z,69.1
2022-12-31T00:51:22.302Z,69.6
2022-12-31T00:57:07.831Z,69.3
2022-12-31T01:03:01.437Z,68.3
2022-12-31T01:08:41.647Z,67.7
2022-12-31T01:14:17.164Z,67.7
2022-12-31T01:19:56.352Z,68
2022-12-31T01:25:31.834Z,68.5
2022-12-31T01:31:28.557Z,68.9
2022-12-31T01:37:04.836Z,68.7
2022-12-31T01:42:40.242Z,68.2
2022-12-31T01:48:37.124Z,68.3
2022-12-31T01:54:09.941Z,68.6
2022-12-31T01:59:44.861Z,69.2
2022-12-31T02:05:41.745Z,69.4
2022-12-31T02:11:17.655Z,69.6
2022-12-31T02:16:52.432Z,69.6
2022-12-31T02:22:52.495Z,69.4
2022-12-31T02:28:33.549Z,69.1
2022-12-31T02:34:18.448Z,68.9
2022-12-31T02:40:04.022Z,69.4
2022-12-31T02:45:40.366Z,69.6
2022-12-31T02:51:15.358Z,70.6
2022-12-31T02:56:50.731Z,70.2
2022-12-31T03:02:26.717Z,70.5
2022-12-31T03:08:03.303Z,70.9
2022-12-31T03:14:00.715Z,71.1
2022-12-31T03:20:27.624Z,71.4
2022-12-31T03:26:03.733Z,71.1
2022-12-31T03:31:38.879Z,70.5
2022-12-31T03:37:42.335Z,69.7
2022-12-31T03:43:19.102Z,69.3
2022-12-31T03:49:22.914Z,69.4
2022-12-31T03:54:56.242Z,69.6
2022-12-31T04:00:33.581Z,69.8
2022-12-31T04:06:09.727Z,70.1
2022-12-31T04:11:44.869Z,70
2022-12-31T04:17:31.314Z,70.4
2022-12-31T04:23:16.635Z,70.5
2022-12-31T04:28:51.824Z,70.7
2022-12-31T04:34:28.181Z,70.7
2022-12-31T04:40:15.751Z,70.3
2022-12-31T04:45:51.405Z,69.8
2022-12-31T04:51:28.740Z,69.4
2022-12-31T04:57:13.070Z,69.6
2022-12-31T05:02:49.344Z,70.3
2022-12-31T05:08:29.659Z,70.5
2022-12-31T05:14:26.244Z,70.8
2022-12-31T05:20:01.711Z,71.1
2022-12-31T05:25:37.178Z,70.6
2022-12-31T05:31:12.985Z,70.1
2022-12-31T05:36:48.980Z,70.2
2022-12-31T05:42:24.793Z,70.4
2022-12-31T05:48:22.170Z,70.5
2022-12-31T05:53:55.324Z,70.4
2022-12-31T05:59:32.436Z,70.6
2022-12-31T06:05:26.236Z,70.7
2022-12-31T06:11:02.931Z,70.4
2022-12-31T06:16:38.215Z,70.5
2022-12-31T06:22:41.698Z,70.3
2022-12-31T06:28:21.128Z,70
2022-12-31T06:33:56.323Z,69.8
2022-12-31T06:39:34.061Z,69.6
2022-12-31T06:45:30.788Z,69.9
2022-12-31T06:51:06.073Z,67.6
2022-12-31T06:57:25.119Z,66
2022-12-31T07:03:01.560Z,63.7
2022-12-31T07:08:37.434Z,65.2
2022-12-31T07:14:28.722Z,71.5
2022-12-31T07:20:11.593Z,66.6
2022-12-31T07:25:47.892Z,72.9
2022-12-31T07:31:45.599Z,71.6
2022-12-31T07:37:37.003Z,72.9
2022-12-31T07:43:42.489Z,72.7
2022-12-31T07:49:31.794Z,72.9
2022-12-31T07:55:06.703Z,70
2022-12-31T08:00:52.707Z,68.8
2022-12-31T08:06:28.032Z,72
2022-12-31T08:12:10.583Z,74.2
2022-12-31T08:17:46.130Z,71.8
2022-12-31T08:23:21.605Z,71.4
2022-12-31T08:29:01.889Z,74.6
2022-12-31T08:34:57.914Z,72.1
2022-12-31T08:43:57.155Z,72.4
2022-12-31T08:49:45.677Z,69
2022-12-31T08:55:24.865Z,72.8
2022-12-31T09:01:00.219Z,74.3
2022-12-31T09:07:11.957Z,72.4
2022-12-31T09:13:07.940Z,72.1
2022-12-31T09:18:49.150Z,70.7
2022-12-31T09:24:33.179Z,71.2
2022-12-31T09:30:14.009Z,73.2
2022-12-31T09:37:28.059Z,70.5
2022-12-31T09:43:03.515Z,66.8
2022-12-31T09:48:53.336Z,68.5
2022-12-31T09:54:45.779Z,65.3
2022-12-31T10:00:55.096Z,60.9
2022-12-31T10:06:31.009Z,67.2
2022-12-31T10:12:05.933Z,66.8
2022-12-31T10:19:13.335Z,70.3
2022-12-31T10:24:58.585Z,65.3
2022-12-31T10:30:42.123Z,71.4
2022-12-31T10:36:17.780Z,68.8
2022-12-31T10:41:52.781Z,64.6
2022-12-31T10:48:03.835Z,66.1
2022-12-31T10:53:38.082Z,64.1
2022-12-31T10:59:13.214Z,60.1
2022-12-31T11:04:48.474Z,60.3
2022-12-31T11:10:33.857Z,69.4
2022-12-31T11:16:10.222Z,69.6
2022-12-31T11:22:11.944Z,69
2022-12-31T11:28:07.788Z,67.1
2022-12-31T11:34:39.819Z,68.5
2022-12-31T11:40:15.031Z,67
2022-12-31T11:46:42.029Z,58.4
2022-12-31T11:52:21.963Z,59.8
2022-12-31T11:58:23.555Z,66
2022-12-31T12:04:09.647Z,66.7
2022-12-31T12:09:45.364Z,68.3
2022-12-31T12:15:25.313Z,69.7
2022-12-31T12:21:08.575Z,70.8
2022-12-31T12:26:47.195Z,63.7
2022-12-31T12:32:25.309Z,69.7
2022-12-31T12:38:01.745Z,68.9
2022-12-31T12:43:44.596Z,66.4
2022-12-31T12:49:47.348Z,66.7
2022-12-31T12:55:20.087Z,62.5
2022-12-31T13:01:19.758Z,65.3
2022-12-31T13:06:57.130Z,63.4
2022-12-31T13:13:24.523Z,68.1
2022-12-31T13:19:01.948Z,70.3
2022-12-31T13:24:42.643Z,70.6
2022-12-31T13:30:18.362Z,72.8
2022-12-31T13:36:06.124Z,71.2
2022-12-31T13:41:42.363Z,69.5
2022-12-31T13:47:17.655Z,64.6
2022-12-31T13:52:58.099Z,65.5
2022-12-31T13:58:37.231Z,65.6
2022-12-31T14:04:12.680Z,68.7
2022-12-31T14:09:51.878Z,66.8
2022-12-31T14:15:28.427Z,69.7
2022-12-31T14:21:30.440Z,69.2
2022-12-31T14:27:23.521Z,69
2022-12-31T14:32:59.232Z,69.1
2022-12-31T14:38:56.089Z,64
2022-12-31T14:44:42.935Z,62.8
2022-12-31T14:50:18.101Z,63.1
2022-12-31T14:56:15.365Z,61.8
2022-12-31T15:02:08.181Z,61
2022-12-31T15:07:46.951Z,58.1
2022-12-31T15:13:23.286Z,61.1
2022-12-31T15:19:07.640Z,57.7
2022-12-31T15:24:43.519Z,58.2
2022-12-31T15:30:25.446Z,58.6
2022-12-31T15:36:00.836Z,58.7
2022-12-31T15:42:49.622Z,59
2022-12-31T15:48:27.716Z,59.8
2022-12-31T15:54:02.855Z,61.8
2022-12-31T15:59:38.324Z,60.1
2022-12-31T16:05:29.054Z,61.9
2022-12-31T16:11:06.509Z,63.7
2022-12-31T16:16:41.631Z,64.1
2022-12-31T16:22:24.226Z,62.2
2022-12-31T16:28:02.762Z,61.3
2022-12-31T16:33:38.479Z,62.2
2022-12-31T16:39:13.725Z,63.3
2022-12-31T16:44:50.224Z,65.3
2022-12-31T16:50:25.674Z,63
2022-12-31T16:56:04.873Z,64.2
2022-12-31T17:01:53.435Z,65
2022-12-31T17:07:29.746Z,63.8
2022-12-31T17:13:30.156Z,63.5
2022-12-31T17:19:07.299Z,65
2022-12-31T17:24:42.498Z,65.5
2022-12-31T17:30:18.332Z,66.6
2022-12-31T17:35:53.818Z,67.3
2022-12-31T17:41:52.612Z,66.8
2022-12-31T17:47:31.343Z,66.5
2022-12-31T17:53:18.242Z,66.9
2022-12-31T17:58:53.440Z,67.3
2022-12-31T18:04:29.150Z,67.1
2022-12-31T18:10:07.482Z,67.1
2022-12-31T18:15:45.906Z,67.1
2022-12-31T18:21:24.171Z,66.5
2022-12-31T18:26:59.719Z,65.8
2022-12-31T18:32:34.793Z,66.1
2022-12-31T18:38:10.766Z,66
2022-12-31T18:43:59.659Z,65.4
2022-12-31T18:49:45.825Z,65.1
2022-12-31T18:55:25.543Z,64.9
2022-12-31T19:01:04.659Z,64.2
2022-12-31T19:06:41.968Z,64.2
2022-12-31T19:12:17.381Z,63.7
2022-12-31T19:18:29.919Z,63.7
2022-12-31T19:24:20.466Z,63.7
2022-12-31T19:30:05.970Z,63.8
2022-12-31T19:36:22.516Z,63.4
2022-12-31T19:42:32.413Z,63
2022-12-31T19:48:33.671Z,62.6
2022-12-31T19:54:06.438Z,62.3
2022-12-31T19:59:50.449Z,62.2
2022-12-31T20:05:26.010Z,61.9
2022-12-31T20:11:14.313Z,61.7
2022-12-31T20:16:50.401Z,61.8
2022-12-31T20:22:26.214Z,61.3
2022-12-31T20:28:02.574Z,61
2022-12-31T20:33:39.432Z,63.3
2022-12-31T20:39:39.285Z,64.4
2022-12-31T20:45:17.230Z,65.3
2022-12-31T20:51:06.995Z,65.5
2022-12-31T20:56:44.801Z,64.9
2022-12-31T21:02:43.457Z,62.3
2022-12-31T21:09:37.109Z,63.4
2022-12-31T21:15:13.350Z,64.2
2022-12-31T21:20:51.363Z,64.4
2022-12-31T21:26:26.605Z,63.4
2022-12-31T21:32:10.879Z,61.8
2022-12-31T21:38:00.539Z,62
2022-12-31T21:43:36.443Z,62.7
2022-12-31T21:49:36.088Z,63.7
2022-12-31T21:55:10.273Z,64.4
2022-12-31T22:01:22.445Z,64.1
2022-12-31T22:07:32.915Z,64
2022-12-31T22:13:58.539Z,63.3
2022-12-31T22:20:27.425Z,63.1
2022-12-31T22:26:04.861Z,63
2022-12-31T22:31:45.856Z,63.3
2022-12-31T22:37:58.075Z,63.2
2022-12-31T22:43:48.679Z,61.9
2022-12-31T22:49:59.195Z,62.3
2022-12-31T22:55:43.370Z,62.1
2022-12-31T23:01:28.357Z,61.3
2022-12-31T23:07:05.882Z,59.9
2022-12-31T23:12:41.219Z,59.9
2022-12-31T23:18:19.871Z,60
2022-12-31T23:24:03.327Z,59.1
2022-12-31T23:29:47.636Z,56.5
2022-12-31T23:35:27.456Z,54.6
2022-12-31T23:41:11.151Z,56
2022-12-31T23:47:08.779Z,57.9
2022-12-31T23:52:42.307Z,59.2
2022-12-31T23:58:18.840Z,59.2
